createdAt,value
2022-10-03T00:00:15.554Z,11.60
2022-10-03T00:03:22.850Z,11.60
2022-10-03T00:06:04.615Z,11.60
2022-10-03T00:08:48.047Z,11.60
2022-10-03T00:11:24.723Z,11.60
2022-10-03T00:13:58.363Z,11.60
2022-10-03T00:16:36.830Z,11.60
2022-10-03T00:19:09.637Z,11.50
2022-10-03T00:21:48.964Z,11.50
2022-10-03T00:24:26.003Z,11.40
2022-10-03T00:26:57.835Z,11.40
2022-10-03T00:29:48.894Z,11.40
2022-10-03T00:32:34.398Z,11.40
2022-10-03T00:35:15.590Z,11.30
2022-10-03T00:37:55.668Z,11.30
2022-10-03T00:41:12.796Z,11.30
2022-10-03T00:44:14.570Z,11.40
2022-10-03T00:47:10.508Z,11.40
2022-10-03T00:49:56.710Z,11.40
2022-10-03T00:52:36.816Z,11.50
2022-10-03T00:55:17.810Z,11.50
2022-10-03T00:58:22.415Z,11.60
2022-10-03T01:00:57.945Z,11.60
2022-10-03T01:03:39.035Z,11.60
2022-10-03T01:06:21.667Z,11.70
2022-10-03T01:09:07.801Z,11.70
2022-10-03T01:11:48.326Z,11.70
2022-10-03T01:14:42.192Z,11.80
2022-10-03T01:17:17.894Z,11.80
2022-10-03T01:20:12.178Z,11.80
2022-10-03T01:23:22.327Z,11.80
2022-10-03T01:25:58.055Z,11.80
2022-10-03T01:28:58.306Z,11.70
2022-10-03T01:31:33.980Z,11.80
2022-10-03T01:34:08.528Z,11.80
2022-10-03T01:36:44.062Z,11.80
2022-10-03T01:39:22.480Z,11.80
2022-10-03T01:41:59.072Z,11.90
2022-10-03T01:44:40.474Z,11.90
2022-10-03T01:47:26.147Z,11.90
2022-10-03T01:50:01.306Z,11.90
2022-10-03T01:52:38.438Z,11.80
2022-10-03T01:55:13.181Z,11.80
2022-10-03T01:57:46.674Z,11.70
2022-10-03T02:00:20.512Z,11.70
2022-10-03T02:02:54.638Z,11.60
2022-10-03T02:05:36.354Z,11.60
2022-10-03T02:08:11.532Z,11.50
2022-10-03T02:10:49.132Z,11.50
2022-10-03T02:13:22.013Z,11.40
2022-10-03T02:15:59.801Z,11.40
2022-10-03T02:18:37.632Z,11.30
2022-10-03T02:21:14.325Z,11.30
2022-10-03T02:23:45.720Z,11.20
2022-10-03T02:26:48.439Z,11.20
2022-10-03T02:29:35.361Z,11.20
2022-10-03T02:32:23.977Z,11.20
2022-10-03T02:35:14.860Z,11.20
2022-10-03T02:38:12.419Z,11.20
2022-10-03T02:40:57.805Z,11.20
2022-10-03T02:43:55.999Z,11.20
2022-10-03T02:47:00.766Z,11.20
2022-10-03T02:50:00.501Z,11.10
2022-10-03T02:53:03.942Z,11.00
2022-10-03T02:56:10.373Z,11.00
2022-10-03T02:59:06.745Z,10.90
2022-10-03T03:02:06.562Z,10.90
2022-10-03T03:05:15.932Z,10.80
2022-10-03T03:08:27.869Z,10.80
2022-10-03T03:11:34.952Z,10.80
2022-10-03T03:14:47.571Z,10.70
2022-10-03T03:17:30.951Z,10.70
2022-10-03T03:20:19.014Z,10.70
2022-10-03T03:22:58.847Z,10.70
2022-10-03T03:25:50.310Z,10.70
2022-10-03T03:28:34.692Z,10.60
2022-10-03T03:31:11.202Z,10.60
2022-10-03T03:33:51.172Z,10.60
2022-10-03T03:36:29.014Z,10.50
2022-10-03T03:39:06.915Z,10.50
2022-10-03T03:41:56.262Z,10.50
2022-10-03T03:44:59.431Z,10.50
2022-10-03T03:47:58.871Z,10.40
2022-10-03T03:50:38.482Z,10.50
2022-10-03T03:53:32.614Z,10.40
2022-10-03T03:56:17.598Z,10.40
2022-10-03T03:58:58.364Z,10.40
2022-10-03T04:01:45.948Z,10.40
2022-10-03T04:04:29.774Z,10.40
2022-10-03T04:07:08.799Z,10.40
2022-10-03T04:10:18.258Z,10.40
2022-10-03T04:13:18.051Z,10.30
2022-10-03T04:16:03.008Z,10.40
2022-10-03T04:19:00.815Z,10.30
2022-10-03T04:22:02.762Z,10.40
2022-10-03T04:24:54.936Z,10.30
2022-10-03T04:27:37.994Z,10.40
2022-10-03T04:30:14.271Z,10.30
2022-10-03T04:33:09.017Z,10.30
2022-10-03T04:36:15.453Z,10.30
2022-10-03T04:38:50.595Z,10.30
2022-10-03T04:41:33.357Z,10.30
2022-10-03T04:44:12.863Z,10.30
2022-10-03T04:46:48.029Z,10.30
2022-10-03T04:49:26.748Z,10.30
2022-10-03T04:52:00.772Z,10.30
2022-10-03T04:54:43.415Z,10.30
2022-10-03T04:57:24.488Z,10.20
2022-10-03T05:00:01.443Z,10.20
2022-10-03T05:02:46.743Z,10.20
2022-10-03T05:05:36.993Z,10.20
2022-10-03T05:08:17.110Z,10.20
2022-10-03T05:10:57.551Z,10.20
2022-10-03T05:13:39.392Z,10.10
2022-10-03T05:16:17.197Z,10.20
2022-10-03T05:18:53.329Z,10.20
2022-10-03T05:21:32.023Z,10.20
2022-10-03T05:24:15.517Z,10.20
2022-10-03T05:26:50.789Z,10.20
2022-10-03T05:29:28.172Z,10.20
2022-10-03T05:32:11.885Z,10.20
2022-10-03T05:35:04.512Z,10.20
2022-10-03T05:37:54.097Z,10.20
2022-10-03T05:40:25.319Z,10.20
2022-10-03T05:43:05.259Z,10.20
2022-10-03T05:45:48.527Z,10.20
2022-10-03T05:48:31.751Z,10.20
2022-10-03T05:51:13.362Z,10.30
2022-10-03T05:54:21.781Z,10.30
2022-10-03T05:57:07.989Z,10.30
2022-10-03T06:00:02.658Z,10.30
2022-10-03T06:02:54.167Z,10.30
2022-10-03T06:05:56.934Z,10.40
2022-10-03T06:08:55.152Z,10.40
2022-10-03T06:11:51.244Z,10.40
2022-10-03T06:14:45.195Z,10.40
2022-10-03T06:17:43.833Z,10.40
2022-10-03T06:20:31.340Z,10.40
2022-10-03T06:23:29.133Z,10.40
2022-10-03T06:26:18.069Z,10.50
2022-10-03T06:29:34.214Z,10.50
2022-10-03T06:32:35.812Z,10.50
2022-10-03T06:35:46.084Z,10.60
2022-10-03T06:38:49.880Z,10.60
2022-10-03T06:42:00.128Z,10.70
2022-10-03T06:44:41.096Z,10.80
2022-10-03T06:47:31.453Z,10.80
2022-10-03T06:50:37.650Z,10.90
2022-10-03T06:53:17.105Z,11.00
2022-10-03T06:56:05.749Z,11.10
2022-10-03T06:59:06.010Z,11.20
2022-10-03T07:02:14.328Z,11.40
2022-10-03T07:05:24.777Z,11.50
2022-10-03T07:08:26.163Z,11.60
2022-10-03T07:11:14.992Z,11.70
2022-10-03T07:14:16.773Z,11.80
2022-10-03T07:17:23.202Z,11.90
2022-10-03T07:20:27.441Z,11.90
2022-10-03T07:23:29.096Z,12.00
2022-10-03T07:26:34.262Z,12.10
2022-10-03T07:29:15.331Z,12.10
2022-10-03T07:32:28.159Z,12.10
2022-10-03T07:35:49.946Z,12.10
2022-10-03T07:39:00.287Z,12.10
2022-10-03T07:42:00.630Z,12.10
2022-10-03T07:45:00.301Z,12.10
2022-10-03T07:47:57.754Z,12.10
2022-10-03T07:50:51.441Z,12.10
2022-10-03T07:53:44.273Z,12.20
2022-10-03T07:56:32.463Z,12.20
2022-10-03T07:59:41.030Z,12.30
2022-10-03T08:02:31.289Z,12.40
2022-10-03T08:05:25.072Z,12.50
2022-10-03T08:08:19.052Z,12.60
2022-10-03T08:11:09.977Z,12.60
2022-10-03T08:13:56.061Z,12.70
2022-10-03T08:16:54.740Z,12.70
2022-10-03T08:19:35.909Z,12.80
2022-10-03T08:22:12.012Z,12.80
2022-10-03T08:25:08.122Z,12.90
2022-10-03T08:28:04.150Z,12.90
2022-10-03T08:30:49.064Z,13.00
2022-10-03T08:33:36.776Z,13.10
2022-10-03T08:36:42.582Z,13.10
2022-10-03T08:39:18.389Z,13.40
2022-10-03T08:42:23.957Z,13.50
2022-10-03T08:45:25.983Z,13.60
2022-10-03T08:48:33.290Z,13.70
2022-10-03T08:51:36.168Z,13.80
2022-10-03T08:54:25.498Z,13.80
2022-10-03T08:57:07.925Z,13.90
2022-10-03T09:00:08.834Z,13.90
2022-10-03T09:06:25.493Z,14.10
2022-10-03T09:09:20.686Z,14.20
2022-10-03T09:12:28.552Z,14.20
2022-10-03T09:15:16.662Z,14.20
2022-10-03T09:18:22.794Z,14.20
2022-10-03T09:21:26.280Z,14.20
2022-10-03T09:24:33.739Z,14.30
2022-10-03T09:27:31.897Z,14.40
2022-10-03T09:30:26.708Z,14.50
2022-10-03T09:33:28.292Z,14.60
2022-10-03T09:36:35.819Z,14.60
2022-10-03T09:39:40.846Z,14.70
2022-10-03T09:42:42.553Z,14.80
2022-10-03T09:45:27.719Z,14.80
2022-10-03T09:48:19.672Z,14.90
2022-10-03T09:51:06.268Z,14.90
2022-10-03T09:54:17.589Z,15.00
2022-10-03T09:57:25.090Z,15.00
2022-10-03T10:00:21.122Z,15.00
2022-10-03T10:03:21.473Z,14.90
2022-10-03T10:06:30.070Z,14.90
2022-10-03T10:09:23.575Z,14.90
2022-10-03T10:12:18.928Z,15.00
2022-10-03T10:15:04.400Z,15.10
2022-10-03T10:18:29.630Z,15.00
2022-10-03T10:21:32.492Z,14.90
2022-10-03T10:24:17.312Z,15.00
2022-10-03T10:27:09.422Z,15.00
2022-10-03T10:29:54.357Z,15.00
2022-10-03T10:32:56.825Z,15.00
2022-10-03T10:35:56.805Z,14.90
2022-10-03T10:38:31.819Z,14.90
2022-10-03T10:41:42.769Z,14.80
2022-10-03T10:44:49.957Z,14.90
2022-10-03T10:47:48.801Z,15.00
2022-10-03T10:51:15.511Z,15.00
2022-10-03T10:54:22.792Z,15.00
2022-10-03T10:57:16.502Z,15.10
2022-10-03T11:00:09.074Z,15.20
2022-10-03T11:03:09.715Z,15.20
2022-10-03T11:06:07.635Z,15.20
2022-10-03T11:09:25.765Z,15.20
2022-10-03T11:12:27.161Z,15.10
2022-10-03T11:15:31.080Z,15.00
2022-10-03T11:18:32.865Z,15.00
2022-10-03T11:21:39.350Z,15.00
2022-10-03T11:24:51.437Z,15.20
2022-10-03T11:27:55.454Z,15.40
2022-10-03T11:31:07.249Z,15.60
2022-10-03T11:34:18.843Z,15.70
2022-10-03T11:37:10.889Z,15.80
2022-10-03T11:39:54.691Z,15.90
2022-10-03T11:42:33.464Z,15.90
2022-10-03T11:45:03.536Z,15.90
2022-10-03T11:47:43.886Z,15.80
2022-10-03T11:50:30.731Z,15.70
2022-10-03T11:53:14.835Z,15.60
2022-10-03T11:55:51.380Z,15.50
2022-10-03T11:58:42.834Z,15.50
2022-10-03T12:01:24.382Z,15.50
2022-10-03T12:04:03.103Z,15.50
2022-10-03T12:07:07.630Z,15.50
2022-10-03T12:09:46.878Z,15.50
2022-10-03T12:12:28.198Z,15.60
2022-10-03T12:15:00.074Z,15.60
2022-10-03T12:17:32.381Z,15.70
2022-10-03T12:20:07.917Z,15.70
2022-10-03T12:22:43.543Z,15.80
2022-10-03T12:25:21.600Z,15.80
2022-10-03T12:27:58.446Z,15.80
2022-10-03T12:30:29.054Z,15.80
2022-10-03T12:33:10.019Z,15.80
2022-10-03T12:35:45.471Z,15.80
2022-10-03T12:38:28.024Z,15.80
2022-10-03T12:41:10.238Z,15.70
2022-10-03T12:43:51.886Z,15.70
2022-10-03T12:46:30.164Z,15.70
2022-10-03T12:49:03.438Z,15.60
2022-10-03T12:51:54.756Z,15.60
2022-10-03T12:54:41.090Z,15.60
2022-10-03T12:57:45.304Z,15.60
2022-10-03T13:00:21.523Z,15.60
2022-10-03T13:03:13.959Z,15.70
2022-10-03T13:05:56.275Z,15.70
2022-10-03T13:08:44.873Z,15.70
2022-10-03T13:11:29.695Z,15.70
2022-10-03T13:14:13.479Z,15.70
2022-10-03T13:16:51.028Z,15.80
2022-10-03T13:19:21.868Z,15.90
2022-10-03T13:22:06.165Z,15.90
2022-10-03T13:24:40.540Z,15.90
2022-10-03T13:27:25.699Z,15.90
2022-10-03T13:30:01.173Z,16.00
2022-10-03T13:32:35.896Z,16.00
2022-10-03T13:35:29.281Z,16.00
2022-10-03T13:38:18.943Z,16.00
2022-10-03T13:40:57.188Z,16.10
2022-10-03T13:43:37.715Z,16.10
2022-10-03T13:46:14.810Z,16.10
2022-10-03T13:48:47.532Z,16.10
2022-10-03T13:51:26.418Z,16.10
2022-10-03T13:54:01.188Z,16.10
2022-10-03T13:56:44.831Z,16.10
2022-10-03T13:59:47.927Z,16.10
2022-10-03T14:02:29.073Z,16.20
2022-10-03T14:05:29.881Z,16.20
2022-10-03T14:08:08.558Z,16.20
2022-10-03T14:11:04.727Z,16.20
2022-10-03T14:13:46.228Z,16.30
2022-10-03T14:16:22.082Z,16.30
2022-10-03T14:18:58.956Z,16.30
2022-10-03T14:21:41.829Z,16.30
2022-10-03T14:24:25.088Z,16.30
2022-10-03T14:27:00.625Z,16.30
2022-10-03T14:29:37.147Z,16.30
2022-10-03T14:32:28.623Z,16.30
2022-10-03T14:35:10.675Z,16.20
2022-10-03T14:37:43.151Z,16.10
2022-10-03T14:40:18.502Z,16.10
2022-10-03T14:42:58.671Z,16.10
2022-10-03T14:45:30.873Z,16.00
2022-10-03T14:48:05.375Z,16.00
2022-10-03T14:50:39.118Z,16.00
2022-10-03T14:53:14.027Z,16.00
2022-10-03T14:55:47.430Z,15.90
2022-10-03T14:58:21.292Z,15.90
2022-10-03T15:00:51.117Z,15.80
2022-10-03T15:03:30.520Z,15.80
2022-10-03T15:06:23.418Z,15.80
2022-10-03T15:08:56.000Z,15.80
2022-10-03T15:11:28.039Z,15.70
2022-10-03T15:14:02.383Z,15.80
2022-10-03T15:16:34.554Z,15.70
2022-10-03T15:19:10.738Z,15.70
2022-10-03T15:21:45.892Z,15.70
2022-10-03T15:24:25.074Z,15.70
2022-10-03T15:26:59.715Z,15.60
2022-10-03T15:29:28.565Z,15.70
2022-10-03T15:31:58.503Z,15.60
2022-10-03T15:34:31.484Z,15.60
2022-10-03T15:37:07.964Z,15.60
2022-10-03T15:39:40.372Z,15.60
2022-10-03T15:42:23.905Z,15.60
2022-10-03T15:44:55.869Z,15.60
2022-10-03T15:47:26.700Z,15.60
2022-10-03T15:49:59.746Z,15.60
2022-10-03T15:52:40.283Z,15.50
2022-10-03T15:55:15.809Z,15.50
2022-10-03T15:57:47.603Z,15.50
2022-10-03T16:00:25.091Z,15.50
2022-10-03T16:03:08.483Z,15.40
2022-10-03T16:05:43.645Z,15.40
2022-10-03T16:08:20.703Z,15.40
2022-10-03T16:10:59.892Z,15.30
2022-10-03T16:13:36.458Z,15.40
2022-10-03T16:16:20.939Z,15.30
2022-10-03T16:18:58.323Z,15.30
2022-10-03T16:21:47.265Z,15.20
2022-10-03T16:24:29.664Z,15.20
2022-10-03T16:27:01.052Z,15.10
2022-10-03T16:29:35.421Z,15.00
2022-10-03T16:32:07.045Z,15.00
2022-10-03T16:34:36.921Z,14.90
2022-10-03T16:37:12.953Z,14.80
2022-10-03T16:39:49.738Z,14.80
2022-10-03T16:42:25.675Z,14.80
2022-10-03T16:44:57.943Z,14.70
2022-10-03T16:47:34.336Z,14.60
2022-10-03T16:50:20.258Z,14.50
2022-10-03T16:52:52.032Z,14.50
2022-10-03T16:55:28.362Z,14.40
2022-10-03T16:57:58.895Z,14.40
2022-10-03T17:00:33.844Z,14.30
2022-10-03T17:03:06.830Z,14.30
2022-10-03T17:05:43.769Z,14.20
2022-10-03T17:08:40.103Z,14.20
2022-10-03T17:11:06.781Z,14.20
2022-10-03T17:13:44.853Z,14.10
2022-10-03T17:16:16.654Z,14.10
2022-10-03T17:18:47.108Z,14.10
2022-10-03T17:21:25.706Z,14.00
2022-10-03T17:24:04.092Z,14.00
2022-10-03T17:26:39.051Z,13.90
2022-10-03T17:29:16.308Z,13.80
2022-10-03T17:31:49.724Z,13.80
2022-10-03T17:34:22.126Z,13.80
2022-10-03T17:37:13.379Z,13.70
2022-10-03T17:39:55.187Z,13.70
2022-10-03T17:42:42.006Z,13.70
2022-10-03T17:45:40.018Z,13.70
2022-10-03T17:48:15.299Z,13.60
2022-10-03T17:50:57.362Z,13.70
2022-10-03T17:53:30.062Z,13.70
2022-10-03T17:56:02.469Z,13.70
2022-10-03T17:58:35.632Z,13.60
2022-10-03T18:01:11.095Z,13.60
2022-10-03T18:03:46.297Z,13.70
2022-10-03T18:06:39.538Z,13.70
2022-10-03T18:09:24.692Z,13.60
2022-10-03T18:11:58.947Z,13.60
2022-10-03T18:14:39.607Z,13.60
2022-10-03T18:17:17.254Z,13.60
2022-10-03T18:20:02.167Z,13.50
2022-10-03T18:22:39.964Z,13.50
2022-10-03T18:25:32.438Z,13.50
2022-10-03T18:28:15.817Z,13.50
2022-10-03T18:30:53.308Z,13.50
2022-10-03T18:33:27.119Z,13.40
2022-10-03T18:35:55.586Z,13.50
2022-10-03T18:38:26.829Z,13.40
2022-10-03T18:40:57.134Z,13.40
2022-10-03T18:43:34.757Z,13.30
2022-10-03T18:46:16.305Z,13.30
2022-10-03T18:49:15.689Z,13.30
2022-10-03T18:51:43.069Z,13.20
2022-10-03T18:54:24.477Z,13.20
2022-10-03T18:57:09.535Z,13.10
2022-10-03T18:59:46.905Z,13.10
2022-10-03T19:02:24.571Z,13.10
2022-10-03T19:04:56.638Z,13.10
2022-10-03T19:07:27.762Z,13.00
2022-10-03T19:10:26.740Z,13.00
2022-10-03T19:13:01.803Z,13.00
2022-10-03T19:15:43.693Z,12.90
2022-10-03T19:18:23.383Z,12.90
2022-10-03T19:20:54.287Z,12.80
2022-10-03T19:23:27.472Z,12.80
2022-10-03T19:26:16.400Z,12.80
2022-10-03T19:28:48.615Z,12.70
2022-10-03T19:31:21.450Z,12.70
2022-10-03T19:33:53.618Z,12.60
2022-10-03T19:36:23.616Z,12.60
2022-10-03T19:38:54.422Z,12.60
2022-10-03T19:41:32.206Z,12.60
2022-10-03T19:44:05.600Z,12.50
2022-10-03T19:46:49.370Z,12.50
2022-10-03T19:49:52.830Z,12.50
2022-10-03T19:52:27.448Z,12.50
2022-10-03T19:55:02.067Z,12.50
2022-10-03T19:57:40.098Z,12.50
2022-10-03T20:00:21.185Z,12.50
2022-10-03T20:02:55.941Z,12.50
2022-10-03T20:05:28.123Z,12.40
2022-10-03T20:08:01.934Z,12.40
2022-10-03T20:10:42.258Z,12.40
2022-10-03T20:13:11.138Z,12.40
2022-10-03T20:15:44.251Z,12.30
2022-10-03T20:18:22.820Z,12.30
2022-10-03T20:20:53.933Z,12.30
2022-10-03T20:23:25.614Z,12.20
2022-10-03T20:26:01.092Z,12.20
2022-10-03T20:28:45.654Z,12.20
2022-10-03T20:31:22.891Z,12.10
2022-10-03T20:33:53.319Z,12.10
2022-10-03T20:36:26.330Z,12.00
2022-10-03T20:39:06.664Z,12.00
2022-10-03T20:41:50.051Z,12.00
2022-10-03T20:44:28.103Z,12.00
2022-10-03T20:47:03.382Z,12.00
2022-10-03T20:49:33.786Z,12.00
2022-10-03T20:52:04.104Z,11.90
2022-10-03T20:54:37.778Z,11.90
2022-10-03T20:57:13.635Z,11.90
2022-10-03T20:59:48.920Z,11.90
2022-10-03T21:02:26.488Z,11.90
2022-10-03T21:04:58.688Z,11.90
2022-10-03T21:07:35.234Z,11.90
2022-10-03T21:10:11.502Z,11.90
2022-10-03T21:12:44.678Z,11.90
2022-10-03T21:15:24.378Z,11.90
2022-10-03T21:17:57.142Z,11.90
2022-10-03T21:20:32.631Z,12.00
2022-10-03T21:23:05.416Z,11.90
2022-10-03T21:25:38.042Z,11.90
2022-10-03T21:28:06.226Z,11.90
2022-10-03T21:30:54.500Z,11.90
2022-10-03T21:33:31.340Z,11.90
2022-10-03T21:36:09.759Z,11.90
2022-10-03T21:38:43.170Z,11.90
2022-10-03T21:41:28.008Z,11.90
2022-10-03T21:43:58.110Z,11.90
2022-10-03T21:46:45.066Z,11.90
2022-10-03T21:49:48.498Z,11.90
2022-10-03T21:52:36.659Z,11.80
2022-10-03T21:55:29.853Z,11.90
2022-10-03T21:58:23.733Z,11.90
2022-10-03T22:01:03.108Z,11.90
2022-10-03T22:03:37.125Z,11.90
2022-10-03T22:06:14.487Z,11.90
2022-10-03T22:08:45.253Z,11.90
2022-10-03T22:11:22.921Z,11.80
2022-10-03T22:14:07.044Z,11.80
2022-10-03T22:16:41.041Z,11.80
2022-10-03T22:19:19.335Z,11.80
2022-10-03T22:22:01.927Z,11.80
2022-10-03T22:24:43.635Z,11.80
2022-10-03T22:27:17.582Z,11.80
2022-10-03T22:29:57.054Z,11.80
2022-10-03T22:32:29.842Z,11.80
2022-10-03T22:35:11.630Z,11.80
2022-10-03T22:37:40.551Z,11.80
2022-10-03T22:40:09.603Z,11.70
2022-10-03T22:42:43.310Z,11.70
2022-10-03T22:45:15.958Z,11.70
2022-10-03T22:47:46.558Z,11.70
2022-10-03T22:50:18.461Z,11.70
2022-10-03T22:52:49.578Z,11.60
2022-10-03T22:55:20.271Z,11.60
2022-10-03T22:57:49.733Z,11.60
2022-10-03T23:00:24.000Z,11.60
2022-10-03T23:02:58.953Z,11.60
2022-10-03T23:05:47.534Z,11.60
2022-10-03T23:08:24.395Z,11.60
2022-10-03T23:10:57.399Z,11.60
2022-10-03T23:13:37.117Z,11.60
2022-10-03T23:16:16.923Z,11.60
2022-10-03T23:18:54.954Z,11.60
2022-10-03T23:21:22.989Z,11.60
2022-10-03T23:23:59.855Z,11.60
2022-10-03T23:26:50.200Z,11.50
2022-10-03T23:29:19.327Z,11.50
2022-10-03T23:32:02.451Z,11.50
2022-10-03T23:34:50.103Z,11.50
2022-10-03T23:37:38.269Z,11.50
2022-10-03T23:40:41.180Z,11.40
2022-10-03T23:43:31.501Z,11.40
2022-10-03T23:46:02.394Z,11.40
2022-10-03T23:48:39.398Z,11.40
2022-10-03T23:51:11.072Z,11.30
2022-10-03T23:53:41.694Z,11.30
2022-10-03T23:56:32.060Z,11.30
2022-10-03T23:59:11.967Z,11.20
